sensor_id;sensor_type;location;lat;lon;timestamp;P1;durP1;ratioP1;P2;durP2;ratioP2
69783;SDS011;57054;51.978;4.498;2023-04-20T00:01:53;3.28;;;2.05;;
69783;SDS011;57054;51.978;4.498;2023-04-20T00:04:19;2.00;;;1.90;;
69783;SDS011;57054;51.978;4.498;2023-04-20T00:06:45;2.35;;;1.88;;
69783;SDS011;57054;51.978;4.498;2023-04-20T00:09:11;7.93;;;2.47;;
69783;SDS011;57054;51.978;4.498;2023-04-20T00:11:40;4.47;;;2.33;;
69783;SDS011;57054;51.978;4.498;2023-04-20T00:14:06;3.75;;;2.10;;
69783;SDS011;57054;51.978;4.498;2023-04-20T00:16:31;8.40;;;2.03;;
69783;SDS011;57054;51.978;4.498;2023-04-20T00:18:58;2.53;;;2.17;;
69783;SDS011;57054;51.978;4.498;2023-04-20T00:21:24;2.83;;;2.10;;
69783;SDS011;57054;51.978;4.498;2023-04-20T00:23:50;3.85;;;2.15;;
69783;SDS011;57054;51.978;4.498;2023-04-20T00:26:16;2.22;;;2.03;;
69783;SDS011;57054;51.978;4.498;2023-04-20T00:28:42;4.72;;;2.08;;
69783;SDS011;57054;51.978;4.498;2023-04-20T00:31:07;3.40;;;2.25;;
69783;SDS011;57054;51.978;4.498;2023-04-20T00:33:33;3.78;;;2.00;;
69783;SDS011;57054;51.978;4.498;2023-04-20T00:35:58;4.03;;;2.10;;
69783;SDS011;57054;51.978;4.498;2023-04-20T00:38:24;5.45;;;2.00;;
69783;SDS011;57054;51.978;4.498;2023-04-20T00:40:49;2.13;;;2.00;;
69783;SDS011;57054;51.978;4.498;2023-04-20T00:43:18;5.18;;;1.90;;
69783;SDS011;57054;51.978;4.498;2023-04-20T00:45:44;3.88;;;2.45;;
69783;SDS011;57054;51.978;4.498;2023-04-20T00:48:10;4.65;;;1.98;;
69783;SDS011;57054;51.978;4.498;2023-04-20T00:50:37;2.65;;;1.95;;
69783;SDS011;57054;51.978;4.498;2023-04-20T00:53:03;2.33;;;2.08;;
69783;SDS011;57054;51.978;4.498;2023-04-20T00:55:30;4.40;;;2.22;;
69783;SDS011;57054;51.978;4.498;2023-04-20T00:57:56;4.38;;;2.08;;
69783;SDS011;57054;51.978;4.498;2023-04-20T01:00:22;2.22;;;1.95;;
69783;SDS011;57054;51.978;4.498;2023-04-20T01:02:47;3.38;;;1.80;;
69783;SDS011;57054;51.978;4.498;2023-04-20T01:05:13;4.22;;;2.03;;
69783;SDS011;57054;51.978;4.498;2023-04-20T01:07:38;3.35;;;2.05;;
69783;SDS011;57054;51.978;4.498;2023-04-20T01:10:04;4.68;;;2.05;;
69783;SDS011;57054;51.978;4.498;2023-04-20T01:12:31;1.88;;;1.60;;
69783;SDS011;57054;51.978;4.498;2023-04-20T01:14:56;5.15;;;2.10;;
69783;SDS011;57054;51.978;4.498;2023-04-20T01:17:21;4.53;;;2.05;;
69783;SDS011;57054;51.978;4.498;2023-04-20T01:19:48;3.10;;;1.92;;
69783;SDS011;57054;51.978;4.498;2023-04-20T01:22:17;5.85;;;2.00;;
69783;SDS011;57054;51.978;4.498;2023-04-20T01:24:45;3.05;;;1.90;;
69783;SDS011;57054;51.978;4.498;2023-04-20T01:27:12;4.18;;;2.20;;
69783;SDS011;57054;51.978;4.498;2023-04-20T01:29:38;3.63;;;1.60;;
69783;SDS011;57054;51.978;4.498;2023-04-20T01:32:03;2.22;;;1.80;;
69783;SDS011;57054;51.978;4.498;2023-04-20T01:34:29;3.00;;;2.00;;
69783;SDS011;57054;51.978;4.498;2023-04-20T01:36:55;2.20;;;2.00;;
69783;SDS011;57054;51.978;4.498;2023-04-20T01:39:20;3.42;;;2.00;;
69783;SDS011;57054;51.978;4.498;2023-04-20T01:41:46;4.43;;;1.83;;
69783;SDS011;57054;51.978;4.498;2023-04-20T01:44:11;4.28;;;2.17;;
69783;SDS011;57054;51.978;4.498;2023-04-20T01:46:37;2.72;;;1.92;;
69783;SDS011;57054;51.978;4.498;2023-04-20T01:49:03;5.50;;;1.88;;
69783;SDS011;57054;51.978;4.498;2023-04-20T01:51:30;2.47;;;1.58;;
69783;SDS011;57054;51.978;4.498;2023-04-20T01:53:57;3.38;;;1.58;;
69783;SDS011;57054;51.978;4.498;2023-04-20T01:56:23;3.30;;;1.95;;
69783;SDS011;57054;51.978;4.498;2023-04-20T01:58:48;1.70;;;1.30;;
69783;SDS011;57054;51.978;4.498;2023-04-20T02:01:13;2.00;;;1.90;;
69783;SDS011;57054;51.978;4.498;2023-04-20T02:03:39;1.75;;;1.65;;
69783;SDS011;57054;51.978;4.498;2023-04-20T02:06:04;3.00;;;1.85;;
69783;SDS011;57054;51.978;4.498;2023-04-20T02:08:30;2.55;;;2.30;;
69783;SDS011;57054;51.978;4.498;2023-04-20T02:10:56;2.40;;;2.20;;
69783;SDS011;57054;51.978;4.498;2023-04-20T02:13:22;3.47;;;2.08;;
69783;SDS011;57054;51.978;4.498;2023-04-20T02:15:47;3.83;;;2.92;;
69783;SDS011;57054;51.978;4.498;2023-04-20T02:18:12;5.13;;;2.53;;
69783;SDS011;57054;51.978;4.498;2023-04-20T02:20:40;3.75;;;2.38;;
69783;SDS011;57054;51.978;4.498;2023-04-20T02:23:06;6.43;;;2.85;;
69783;SDS011;57054;51.978;4.498;2023-04-20T02:25:31;3.65;;;2.33;;
69783;SDS011;57054;51.978;4.498;2023-04-20T02:27:57;7.13;;;3.78;;
69783;SDS011;57054;51.978;4.498;2023-04-20T02:30:22;6.65;;;2.55;;
69783;SDS011;57054;51.978;4.498;2023-04-20T02:32:47;3.47;;;2.65;;
69783;SDS011;57054;51.978;4.498;2023-04-20T02:35:13;3.47;;;2.50;;
69783;SDS011;57054;51.978;4.498;2023-04-20T02:37:38;3.67;;;3.05;;
69783;SDS011;57054;51.978;4.498;2023-04-20T02:40:04;3.60;;;2.80;;
69783;SDS011;57054;51.978;4.498;2023-04-20T02:42:31;7.80;;;3.20;;
69783;SDS011;57054;51.978;4.498;2023-04-20T02:44:56;4.32;;;2.97;;
69783;SDS011;57054;51.978;4.498;2023-04-20T02:47:21;6.15;;;3.35;;
69783;SDS011;57054;51.978;4.498;2023-04-20T02:49:47;3.80;;;3.15;;
69783;SDS011;57054;51.978;4.498;2023-04-20T02:52:12;4.88;;;3.55;;
69783;SDS011;57054;51.978;4.498;2023-04-20T02:54:38;4.80;;;3.65;;
69783;SDS011;57054;51.978;4.498;2023-04-20T02:57:03;3.67;;;3.38;;
69783;SDS011;57054;51.978;4.498;2023-04-20T02:59:29;6.40;;;3.45;;
69783;SDS011;57054;51.978;4.498;2023-04-20T03:01:54;7.38;;;3.55;;
69783;SDS011;57054;51.978;4.498;2023-04-20T03:04:19;3.90;;;3.50;;
69783;SDS011;57054;51.978;4.498;2023-04-20T03:06:45;6.65;;;3.45;;
69783;SDS011;57054;51.978;4.498;2023-04-20T03:09:11;3.90;;;3.60;;
69783;SDS011;57054;51.978;4.498;2023-04-20T03:11:37;5.13;;;3.50;;
69783;SDS011;57054;51.978;4.498;2023-04-20T03:14:02;3.70;;;3.35;;
69783;SDS011;57054;51.978;4.498;2023-04-20T03:16:27;9.32;;;3.67;;
69783;SDS011;57054;51.978;4.498;2023-04-20T03:18:53;4.50;;;3.70;;
69783;SDS011;57054;51.978;4.498;2023-04-20T03:21:18;4.35;;;3.28;;
69783;SDS011;57054;51.978;4.498;2023-04-20T03:23:44;4.63;;;3.55;;
69783;SDS011;57054;51.978;4.498;2023-04-20T03:26:10;3.40;;;3.10;;
69783;SDS011;57054;51.978;4.498;2023-04-20T03:28:36;3.55;;;3.25;;
69783;SDS011;57054;51.978;4.498;2023-04-20T03:31:02;4.50;;;3.33;;
69783;SDS011;57054;51.978;4.498;2023-04-20T03:33:27;5.43;;;2.75;;
69783;SDS011;57054;51.978;4.498;2023-04-20T03:35:53;3.65;;;3.35;;
69783;SDS011;57054;51.978;4.498;2023-04-20T03:38:18;5.57;;;2.97;;
69783;SDS011;57054;51.978;4.498;2023-04-20T03:40:43;6.20;;;3.05;;
69783;SDS011;57054;51.978;4.498;2023-04-20T03:43:10;4.53;;;3.15;;
69783;SDS011;57054;51.978;4.498;2023-04-20T03:45:36;3.35;;;2.60;;
69783;SDS011;57054;51.978;4.498;2023-04-20T03:48:01;6.53;;;3.20;;
69783;SDS011;57054;51.978;4.498;2023-04-20T03:50:27;5.10;;;3.05;;
69783;SDS011;57054;51.978;4.498;2023-04-20T03:52:52;4.60;;;3.13;;
69783;SDS011;57054;51.978;4.498;2023-04-20T03:55:17;3.92;;;3.13;;
69783;SDS011;57054;51.978;4.498;2023-04-20T03:57:43;6.50;;;3.22;;
69783;SDS011;57054;51.978;4.498;2023-04-20T04:00:09;4.72;;;3.15;;
69783;SDS011;57054;51.978;4.498;2023-04-20T04:02:36;4.80;;;2.42;;
69783;SDS011;57054;51.978;4.498;2023-04-20T04:05:01;2.90;;;2.67;;
69783;SDS011;57054;51.978;4.498;2023-04-20T04:07:27;4.32;;;2.72;;
69783;SDS011;57054;51.978;4.498;2023-04-20T04:09:52;5.22;;;2.50;;
69783;SDS011;57054;51.978;4.498;2023-04-20T04:12:18;3.17;;;2.70;;
69783;SDS011;57054;51.978;4.498;2023-04-20T04:14:43;2.53;;;2.30;;
69783;SDS011;57054;51.978;4.498;2023-04-20T04:17:08;5.53;;;2.67;;
69783;SDS011;57054;51.978;4.498;2023-04-20T04:19:34;3.95;;;3.13;;
69783;SDS011;57054;51.978;4.498;2023-04-20T04:21:59;6.72;;;2.63;;
69783;SDS011;57054;51.978;4.498;2023-04-20T04:24:25;5.82;;;2.78;;
69783;SDS011;57054;51.978;4.498;2023-04-20T04:26:51;3.28;;;2.60;;
69783;SDS011;57054;51.978;4.498;2023-04-20T04:29:16;2.90;;;2.60;;
69783;SDS011;57054;51.978;4.498;2023-04-20T04:31:42;2.63;;;2.25;;
69783;SDS011;57054;51.978;4.498;2023-04-20T04:34:08;6.22;;;3.00;;
69783;SDS011;57054;51.978;4.498;2023-04-20T04:36:33;6.22;;;2.30;;
69783;SDS011;57054;51.978;4.498;2023-04-20T04:38:58;4.30;;;2.30;;
69783;SDS011;57054;51.978;4.498;2023-04-20T04:41:24;2.90;;;2.25;;
69783;SDS011;57054;51.978;4.498;2023-04-20T04:43:49;3.70;;;2.20;;
69783;SDS011;57054;51.978;4.498;2023-04-20T04:46:15;3.05;;;2.20;;
69783;SDS011;57054;51.978;4.498;2023-04-20T04:48:40;2.95;;;2.33;;
69783;SDS011;57054;51.978;4.498;2023-04-20T04:51:06;3.78;;;2.05;;
69783;SDS011;57054;51.978;4.498;2023-04-20T04:53:32;2.30;;;1.95;;
69783;SDS011;57054;51.978;4.498;2023-04-20T04:55:58;2.15;;;1.95;;
69783;SDS011;57054;51.978;4.498;2023-04-20T04:58:23;7.50;;;2.20;;
69783;SDS011;57054;51.978;4.498;2023-04-20T05:00:49;3.55;;;2.00;;
69783;SDS011;57054;51.978;4.498;2023-04-20T05:03:14;4.38;;;2.35;;
69783;SDS011;57054;51.978;4.498;2023-04-20T05:05:40;7.00;;;1.65;;
69783;SDS011;57054;51.978;4.498;2023-04-20T05:08:06;2.78;;;1.83;;
69783;SDS011;57054;51.978;4.498;2023-04-20T05:10:31;4.15;;;1.92;;
69783;SDS011;57054;51.978;4.498;2023-04-20T05:12:57;3.20;;;1.92;;
69783;SDS011;57054;51.978;4.498;2023-04-20T05:15:25;3.10;;;2.03;;
69783;SDS011;57054;51.978;4.498;2023-04-20T05:17:51;2.45;;;1.63;;
69783;SDS011;57054;51.978;4.498;2023-04-20T05:20:16;4.90;;;1.85;;
69783;SDS011;57054;51.978;4.498;2023-04-20T05:22:43;3.22;;;1.77;;
69783;SDS011;57054;51.978;4.498;2023-04-20T05:25:08;5.07;;;2.00;;
69783;SDS011;57054;51.978;4.498;2023-04-20T05:27:35;3.85;;;1.42;;
69783;SDS011;57054;51.978;4.498;2023-04-20T05:30:00;6.32;;;2.00;;
69783;SDS011;57054;51.978;4.498;2023-04-20T05:32:26;5.88;;;2.00;;
69783;SDS011;57054;51.978;4.498;2023-04-20T05:34:51;5.03;;;1.70;;
69783;SDS011;57054;51.978;4.498;2023-04-20T05:37:17;4.72;;;2.20;;
69783;SDS011;57054;51.978;4.498;2023-04-20T05:39:42;2.90;;;1.85;;
69783;SDS011;57054;51.978;4.498;2023-04-20T05:42:07;5.20;;;2.08;;
69783;SDS011;57054;51.978;4.498;2023-04-20T05:44:33;2.85;;;1.98;;
69783;SDS011;57054;51.978;4.498;2023-04-20T05:47:00;4.38;;;1.73;;
69783;SDS011;57054;51.978;4.498;2023-04-20T05:49:26;4.28;;;1.85;;
69783;SDS011;57054;51.978;4.498;2023-04-20T05:51:51;4.93;;;1.70;;
69783;SDS011;57054;51.978;4.498;2023-04-20T05:54:16;3.25;;;1.70;;
69783;SDS011;57054;51.978;4.498;2023-04-20T05:56:42;1.80;;;1.70;;
69783;SDS011;57054;51.978;4.498;2023-04-20T05:59:07;4.25;;;1.80;;
69783;SDS011;57054;51.978;4.498;2023-04-20T06:01:33;2.13;;;1.90;;
69783;SDS011;57054;51.978;4.498;2023-04-20T06:03:58;2.33;;;1.80;;
69783;SDS011;57054;51.978;4.498;2023-04-20T06:06:24;5.15;;;1.60;;
69783;SDS011;57054;51.978;4.498;2023-04-20T06:08:50;6.10;;;1.95;;
69783;SDS011;57054;51.978;4.498;2023-04-20T06:11:16;2.65;;;1.88;;
69783;SDS011;57054;51.978;4.498;2023-04-20T06:13:41;7.03;;;2.35;;
69783;SDS011;57054;51.978;4.498;2023-04-20T06:16:07;4.70;;;2.15;;
69783;SDS011;57054;51.978;4.498;2023-04-20T06:18:34;1.80;;;1.70;;
69783;SDS011;57054;51.978;4.498;2023-04-20T06:21:01;4.15;;;2.15;;
69783;SDS011;57054;51.978;4.498;2023-04-20T06:23:26;3.13;;;1.48;;
69783;SDS011;57054;51.978;4.498;2023-04-20T06:25:52;3.03;;;1.60;;
69783;SDS011;57054;51.978;4.498;2023-04-20T06:28:17;7.85;;;2.53;;
69783;SDS011;57054;51.978;4.498;2023-04-20T06:30:43;3.33;;;2.00;;
69783;SDS011;57054;51.978;4.498;2023-04-20T06:33:08;2.60;;;1.70;;
69783;SDS011;57054;51.978;4.498;2023-04-20T06:35:33;4.43;;;1.65;;
69783;SDS011;57054;51.978;4.498;2023-04-20T06:37:59;4.30;;;1.90;;
69783;SDS011;57054;51.978;4.498;2023-04-20T06:40:26;7.03;;;2.00;;
69783;SDS011;57054;51.978;4.498;2023-04-20T06:42:52;2.25;;;1.60;;
69783;SDS011;57054;51.978;4.498;2023-04-20T06:45:18;2.53;;;1.92;;
69783;SDS011;57054;51.978;4.498;2023-04-20T06:47:43;5.30;;;2.03;;
69783;SDS011;57054;51.978;4.498;2023-04-20T06:50:09;1.88;;;1.73;;
69783;SDS011;57054;51.978;4.498;2023-04-20T06:52:38;2.88;;;2.03;;
69783;SDS011;57054;51.978;4.498;2023-04-20T06:55:05;2.15;;;1.90;;
69783;SDS011;57054;51.978;4.498;2023-04-20T06:57:31;6.60;;;2.10;;
69783;SDS011;57054;51.978;4.498;2023-04-20T06:59:56;3.85;;;1.80;;
69783;SDS011;57054;51.978;4.498;2023-04-20T07:02:23;3.22;;;1.98;;
69783;SDS011;57054;51.978;4.498;2023-04-20T07:04:49;3.13;;;2.20;;
69783;SDS011;57054;51.978;4.498;2023-04-20T07:07:14;5.75;;;2.40;;
69783;SDS011;57054;51.978;4.498;2023-04-20T07:09:40;7.95;;;2.50;;
69783;SDS011;57054;51.978;4.498;2023-04-20T07:12:06;3.50;;;2.00;;
69783;SDS011;57054;51.978;4.498;2023-04-20T07:14:31;2.55;;;2.35;;
69783;SDS011;57054;51.978;4.498;2023-04-20T07:16:56;4.72;;;2.22;;
69783;SDS011;57054;51.978;4.498;2023-04-20T07:19:22;4.82;;;2.35;;
69783;SDS011;57054;51.978;4.498;2023-04-20T07:21:47;4.95;;;2.20;;
69783;SDS011;57054;51.978;4.498;2023-04-20T07:24:13;3.70;;;2.70;;
69783;SDS011;57054;51.978;4.498;2023-04-20T07:26:38;7.15;;;2.92;;
69783;SDS011;57054;51.978;4.498;2023-04-20T07:29:03;4.65;;;2.35;;
69783;SDS011;57054;51.978;4.498;2023-04-20T07:31:29;5.60;;;2.83;;
69783;SDS011;57054;51.978;4.498;2023-04-20T07:33:54;2.95;;;2.55;;
69783;SDS011;57054;51.978;4.498;2023-04-20T07:36:20;5.82;;;2.38;;
69783;SDS011;57054;51.978;4.498;2023-04-20T07:38:46;4.80;;;2.58;;
69783;SDS011;57054;51.978;4.498;2023-04-20T07:41:14;3.47;;;2.30;;
69783;SDS011;57054;51.978;4.498;2023-04-20T07:43:40;6.00;;;2.53;;
69783;SDS011;57054;51.978;4.498;2023-04-20T07:46:05;5.10;;;2.60;;
69783;SDS011;57054;51.978;4.498;2023-04-20T07:48:35;3.25;;;2.30;;
69783;SDS011;57054;51.978;4.498;2023-04-20T07:51:01;10.05;;;2.50;;
69783;SDS011;57054;51.978;4.498;2023-04-20T07:53:30;5.60;;;2.70;;
69783;SDS011;57054;51.978;4.498;2023-04-20T07:55:55;6.85;;;3.03;;
69783;SDS011;57054;51.978;4.498;2023-04-20T07:58:21;5.18;;;2.55;;
69783;SDS011;57054;51.978;4.498;2023-04-20T08:00:46;3.35;;;2.88;;
69783;SDS011;57054;51.978;4.498;2023-04-20T08:03:12;4.10;;;2.97;;
69783;SDS011;57054;51.978;4.498;2023-04-20T08:05:38;7.20;;;3.20;;
69783;SDS011;57054;51.978;4.498;2023-04-20T08:08:04;5.03;;;2.80;;
69783;SDS011;57054;51.978;4.498;2023-04-20T08:10:30;4.90;;;2.83;;
69783;SDS011;57054;51.978;4.498;2023-04-20T08:12:55;3.33;;;2.85;;
69783;SDS011;57054;51.978;4.498;2023-04-20T08:15:20;3.55;;;2.92;;
69783;SDS011;57054;51.978;4.498;2023-04-20T08:17:46;5.20;;;2.95;;
69783;SDS011;57054;51.978;4.498;2023-04-20T08:20:11;5.22;;;2.40;;
69783;SDS011;57054;51.978;4.498;2023-04-20T08:22:37;10.20;;;3.03;;
69783;SDS011;57054;51.978;4.498;2023-04-20T08:25:03;3.83;;;3.00;;
69783;SDS011;57054;51.978;4.498;2023-04-20T08:27:29;6.10;;;2.83;;
69783;SDS011;57054;51.978;4.498;2023-04-20T08:29:54;3.00;;;2.70;;
69783;SDS011;57054;51.978;4.498;2023-04-20T08:32:20;4.32;;;2.80;;
69783;SDS011;57054;51.978;4.498;2023-04-20T08:34:48;6.72;;;3.03;;
69783;SDS011;57054;51.978;4.498;2023-04-20T08:37:14;3.78;;;3.13;;
69783;SDS011;57054;51.978;4.498;2023-04-20T08:39:39;5.72;;;3.00;;
69783;SDS011;57054;51.978;4.498;2023-04-20T08:42:05;5.95;;;3.10;;
69783;SDS011;57054;51.978;4.498;2023-04-20T08:44:30;6.07;;;2.92;;
69783;SDS011;57054;51.978;4.498;2023-04-20T08:46:56;7.53;;;2.97;;
69783;SDS011;57054;51.978;4.498;2023-04-20T08:49:21;3.50;;;3.17;;
69783;SDS011;57054;51.978;4.498;2023-04-20T08:51:47;3.25;;;2.95;;
69783;SDS011;57054;51.978;4.498;2023-04-20T08:54:13;6.40;;;3.50;;
69783;SDS011;57054;51.978;4.498;2023-04-20T08:56:43;3.88;;;3.10;;
69783;SDS011;57054;51.978;4.498;2023-04-20T08:59:09;4.22;;;3.83;;
69783;SDS011;57054;51.978;4.498;2023-04-20T09:01:37;5.15;;;3.40;;
69783;SDS011;57054;51.978;4.498;2023-04-20T09:04:13;5.03;;;3.22;;
69783;SDS011;57054;51.978;4.498;2023-04-20T09:06:51;3.60;;;3.30;;
69783;SDS011;57054;51.978;4.498;2023-04-20T09:09:18;6.85;;;3.33;;
69783;SDS011;57054;51.978;4.498;2023-04-20T09:11:44;3.85;;;3.55;;
69783;SDS011;57054;51.978;4.498;2023-04-20T09:14:11;5.20;;;3.20;;
69783;SDS011;57054;51.978;4.498;2023-04-20T09:16:49;6.35;;;3.40;;
69783;SDS011;57054;51.978;4.498;2023-04-20T09:19:22;4.15;;;3.58;;
69783;SDS011;57054;51.978;4.498;2023-04-20T09:21:49;4.05;;;3.75;;
69783;SDS011;57054;51.978;4.498;2023-04-20T09:24:22;7.38;;;4.00;;
69783;SDS011;57054;51.978;4.498;2023-04-20T09:26:54;6.30;;;3.95;;
69783;SDS011;57054;51.978;4.498;2023-04-20T09:29:21;5.43;;;3.90;;
69783;SDS011;57054;51.978;4.498;2023-04-20T09:31:48;7.75;;;4.15;;
69783;SDS011;57054;51.978;4.498;2023-04-20T09:34:14;5.70;;;3.55;;
69783;SDS011;57054;51.978;4.498;2023-04-20T09:36:41;4.22;;;3.70;;
69783;SDS011;57054;51.978;4.498;2023-04-20T09:39:08;4.65;;;3.50;;
69783;SDS011;57054;51.978;4.498;2023-04-20T09:41:35;4.57;;;3.10;;
69783;SDS011;57054;51.978;4.498;2023-04-20T09:44:02;5.57;;;3.92;;
69783;SDS011;57054;51.978;4.498;2023-04-20T09:46:28;4.78;;;3.55;;
69783;SDS011;57054;51.978;4.498;2023-04-20T09:48:56;3.70;;;3.40;;
69783;SDS011;57054;51.978;4.498;2023-04-20T09:51:24;5.20;;;3.35;;
69783;SDS011;57054;51.978;4.498;2023-04-20T09:53:52;5.18;;;4.13;;
69783;SDS011;57054;51.978;4.498;2023-04-20T09:56:18;7.55;;;3.92;;
69783;SDS011;57054;51.978;4.498;2023-04-20T09:58:45;4.57;;;4.05;;
69783;SDS011;57054;51.978;4.498;2023-04-20T10:01:11;4.85;;;3.90;;
69783;SDS011;57054;51.978;4.498;2023-04-20T10:03:39;4.00;;;3.70;;
69783;SDS011;57054;51.978;4.498;2023-04-20T10:06:16;4.13;;;3.83;;
69783;SDS011;57054;51.978;4.498;2023-04-20T10:08:48;8.35;;;3.92;;
69783;SDS011;57054;51.978;4.498;2023-04-20T10:14:18;4.00;;;3.70;;
69783;SDS011;57054;51.978;4.498;2023-04-20T10:16:45;4.93;;;4.13;;
69783;SDS011;57054;51.978;4.498;2023-04-20T10:19:11;4.68;;;3.60;;
69783;SDS011;57054;51.978;4.498;2023-04-20T10:21:44;6.15;;;4.07;;
69783;SDS011;57054;51.978;4.498;2023-04-20T10:24:11;4.20;;;3.80;;
69783;SDS011;57054;51.978;4.498;2023-04-20T10:26:41;8.00;;;3.83;;
69783;SDS011;57054;51.978;4.498;2023-04-20T10:29:08;5.00;;;3.47;;
69783;SDS011;57054;51.978;4.498;2023-04-20T10:31:40;5.15;;;4.50;;
69783;SDS011;57054;51.978;4.498;2023-04-20T10:34:06;8.60;;;4.03;;
69783;SDS011;57054;51.978;4.498;2023-04-20T10:36:33;5.95;;;3.90;;
69783;SDS011;57054;51.978;4.498;2023-04-20T10:39:16;5.28;;;3.70;;
69783;SDS011;57054;51.978;4.498;2023-04-20T10:41:50;5.70;;;3.97;;
69783;SDS011;57054;51.978;4.498;2023-04-20T10:44:20;6.03;;;3.78;;
69783;SDS011;57054;51.978;4.498;2023-04-20T10:46:49;4.72;;;3.97;;
69783;SDS011;57054;51.978;4.498;2023-04-20T10:49:17;4.35;;;3.95;;
69783;SDS011;57054;51.978;4.498;2023-04-20T10:51:49;4.68;;;4.00;;
69783;SDS011;57054;51.978;4.498;2023-04-20T10:54:15;4.55;;;3.90;;
69783;SDS011;57054;51.978;4.498;2023-04-20T10:56:42;5.10;;;4.50;;
69783;SDS011;57054;51.978;4.498;2023-04-20T10:59:10;7.47;;;4.80;;
69783;SDS011;57054;51.978;4.498;2023-04-20T11:01:37;9.10;;;4.20;;
69783;SDS011;57054;51.978;4.498;2023-04-20T11:04:03;4.53;;;4.13;;
69783;SDS011;57054;51.978;4.498;2023-04-20T11:06:29;6.45;;;3.92;;
69783;SDS011;57054;51.978;4.498;2023-04-20T11:08:55;5.03;;;4.53;;
69783;SDS011;57054;51.978;4.498;2023-04-20T11:11:24;5.75;;;4.05;;
69783;SDS011;57054;51.978;4.498;2023-04-20T11:13:52;6.45;;;4.30;;
69783;SDS011;57054;51.978;4.498;2023-04-20T11:16:30;8.77;;;4.70;;
69783;SDS011;57054;51.978;4.498;2023-04-20T11:18:55;5.20;;;4.22;;
69783;SDS011;57054;51.978;4.498;2023-04-20T11:21:22;6.60;;;4.13;;
69783;SDS011;57054;51.978;4.498;2023-04-20T11:23:48;8.23;;;4.25;;
69783;SDS011;57054;51.978;4.498;2023-04-20T11:26:14;4.45;;;4.15;;
69783;SDS011;57054;51.978;4.498;2023-04-20T11:28:52;5.03;;;4.43;;
69783;SDS011;57054;51.978;4.498;2023-04-20T11:33:44;4.53;;;4.22;;
69783;SDS011;57054;51.978;4.498;2023-04-20T11:36:17;5.10;;;4.38;;
69783;SDS011;57054;51.978;4.498;2023-04-20T11:38:44;7.22;;;5.13;;
69783;SDS011;57054;51.978;4.498;2023-04-20T11:41:10;5.65;;;4.50;;
69783;SDS011;57054;51.978;4.498;2023-04-20T11:43:35;5.47;;;4.45;;
69783;SDS011;57054;51.978;4.498;2023-04-20T11:46:01;5.80;;;4.43;;
69783;SDS011;57054;51.978;4.498;2023-04-20T11:48:29;4.75;;;4.30;;
69783;SDS011;57054;51.978;4.498;2023-04-20T11:50:56;5.80;;;4.57;;
69783;SDS011;57054;51.978;4.498;2023-04-20T11:53:21;4.90;;;4.50;;
69783;SDS011;57054;51.978;4.498;2023-04-20T11:55:47;6.43;;;4.53;;
69783;SDS011;57054;51.978;4.498;2023-04-20T11:58:13;9.55;;;4.63;;
69783;SDS011;57054;51.978;4.498;2023-04-20T12:00:38;5.10;;;4.65;;
69783;SDS011;57054;51.978;4.498;2023-04-20T12:03:04;6.20;;;5.07;;
69783;SDS011;57054;51.978;4.498;2023-04-20T12:05:29;7.10;;;5.50;;
69783;SDS011;57054;51.978;4.498;2023-04-20T12:07:55;6.45;;;4.88;;
69783;SDS011;57054;51.978;4.498;2023-04-20T12:10:20;5.50;;;4.63;;
69783;SDS011;57054;51.978;4.498;2023-04-20T12:12:46;5.88;;;4.43;;
69783;SDS011;57054;51.978;4.498;2023-04-20T12:15:11;6.18;;;4.45;;
69783;SDS011;57054;51.978;4.498;2023-04-20T12:17:37;4.13;;;3.88;;
69783;SDS011;57054;51.978;4.498;2023-04-20T12:20:02;4.45;;;4.05;;
69783;SDS011;57054;51.978;4.498;2023-04-20T12:22:32;6.70;;;4.93;;
69783;SDS011;57054;51.978;4.498;2023-04-20T12:24:58;4.93;;;4.53;;
69783;SDS011;57054;51.978;4.498;2023-04-20T12:27:24;8.52;;;5.13;;
69783;SDS011;57054;51.978;4.498;2023-04-20T12:29:50;5.00;;;4.60;;
69783;SDS011;57054;51.978;4.498;2023-04-20T12:32:15;5.22;;;4.75;;
69783;SDS011;57054;51.978;4.498;2023-04-20T12:34:41;7.72;;;5.30;;
69783;SDS011;57054;51.978;4.498;2023-04-20T12:37:06;5.35;;;4.38;;
69783;SDS011;57054;51.978;4.498;2023-04-20T12:39:31;9.55;;;4.95;;
69783;SDS011;57054;51.978;4.498;2023-04-20T12:41:57;7.32;;;4.55;;
69783;SDS011;57054;51.978;4.498;2023-04-20T12:44:22;5.28;;;4.22;;
69783;SDS011;57054;51.978;4.498;2023-04-20T12:46:47;6.55;;;4.85;;
69783;SDS011;57054;51.978;4.498;2023-04-20T12:49:13;4.45;;;4.05;;
69783;SDS011;57054;51.978;4.498;2023-04-20T12:51:38;5.55;;;4.15;;
69783;SDS011;57054;51.978;4.498;2023-04-20T12:54:04;6.63;;;4.32;;
69783;SDS011;57054;51.978;4.498;2023-04-20T12:56:30;7.93;;;4.32;;
69783;SDS011;57054;51.978;4.498;2023-04-20T12:58:55;5.32;;;4.10;;
69783;SDS011;57054;51.978;4.498;2023-04-20T13:01:20;4.97;;;4.20;;
69783;SDS011;57054;51.978;4.498;2023-04-20T13:03:46;5.93;;;4.93;;
69783;SDS011;57054;51.978;4.498;2023-04-20T13:06:11;7.05;;;4.38;;
69783;SDS011;57054;51.978;4.498;2023-04-20T13:08:36;6.28;;;4.55;;
69783;SDS011;57054;51.978;4.498;2023-04-20T13:11:02;5.22;;;4.72;;
69783;SDS011;57054;51.978;4.498;2023-04-20T13:13:28;5.00;;;4.50;;
69783;SDS011;57054;51.978;4.498;2023-04-20T13:15:53;7.80;;;4.88;;
69783;SDS011;57054;51.978;4.498;2023-04-20T13:18:18;4.90;;;4.40;;
69783;SDS011;57054;51.978;4.498;2023-04-20T13:20:45;4.68;;;4.07;;
69783;SDS011;57054;51.978;4.498;2023-04-20T13:23:10;5.78;;;4.60;;
69783;SDS011;57054;51.978;4.498;2023-04-20T13:25:36;4.72;;;4.28;;
69783;SDS011;57054;51.978;4.498;2023-04-20T13:28:02;6.07;;;4.57;;
69783;SDS011;57054;51.978;4.498;2023-04-20T13:30:29;5.93;;;4.60;;
69783;SDS011;57054;51.978;4.498;2023-04-20T13:32:54;5.10;;;4.60;;
69783;SDS011;57054;51.978;4.498;2023-04-20T13:35:20;7.80;;;4.72;;
69783;SDS011;57054;51.978;4.498;2023-04-20T13:37:46;5.35;;;4.80;;
69783;SDS011;57054;51.978;4.498;2023-04-20T13:40:11;5.05;;;4.55;;
69783;SDS011;57054;51.978;4.498;2023-04-20T13:42:37;5.30;;;4.57;;
69783;SDS011;57054;51.978;4.498;2023-04-20T13:45:03;5.47;;;4.57;;
69783;SDS011;57054;51.978;4.498;2023-04-20T13:47:29;6.40;;;4.25;;
69783;SDS011;57054;51.978;4.498;2023-04-20T13:49:55;4.72;;;4.20;;
69783;SDS011;57054;51.978;4.498;2023-04-20T13:52:21;5.55;;;4.05;;
69783;SDS011;57054;51.978;4.498;2023-04-20T13:54:46;5.60;;;4.47;;
69783;SDS011;57054;51.978;4.498;2023-04-20T13:57:12;5.20;;;4.18;;
69783;SDS011;57054;51.978;4.498;2023-04-20T13:59:37;4.25;;;3.85;;
69783;SDS011;57054;51.978;4.498;2023-04-20T14:02:03;5.28;;;4.63;;
69783;SDS011;57054;51.978;4.498;2023-04-20T14:04:28;4.82;;;4.43;;
69783;SDS011;57054;51.978;4.498;2023-04-20T14:06:54;4.95;;;4.03;;
69783;SDS011;57054;51.978;4.498;2023-04-20T14:09:19;6.20;;;4.20;;
69783;SDS011;57054;51.978;4.498;2023-04-20T14:11:45;5.07;;;4.57;;
69783;SDS011;57054;51.978;4.498;2023-04-20T14:14:11;5.22;;;4.47;;
69783;SDS011;57054;51.978;4.498;2023-04-20T14:16:43;4.97;;;4.47;;
69783;SDS011;57054;51.978;4.498;2023-04-20T14:19:09;8.27;;;4.90;;
69783;SDS011;57054;51.978;4.498;2023-04-20T14:21:34;7.43;;;4.97;;
69783;SDS011;57054;51.978;4.498;2023-04-20T14:24:00;5.57;;;4.55;;
69783;SDS011;57054;51.978;4.498;2023-04-20T14:26:25;8.93;;;5.18;;
69783;SDS011;57054;51.978;4.498;2023-04-20T14:28:51;7.50;;;5.18;;
69783;SDS011;57054;51.978;4.498;2023-04-20T14:31:17;9.32;;;5.25;;
69783;SDS011;57054;51.978;4.498;2023-04-20T14:33:43;10.88;;;4.85;;
69783;SDS011;57054;51.978;4.498;2023-04-20T14:36:09;6.07;;;4.80;;
69783;SDS011;57054;51.978;4.498;2023-04-20T14:38:34;6.53;;;4.15;;
69783;SDS011;57054;51.978;4.498;2023-04-20T14:41:00;5.20;;;4.43;;
69783;SDS011;57054;51.978;4.498;2023-04-20T14:43:25;5.68;;;4.38;;
69783;SDS011;57054;51.978;4.498;2023-04-20T14:45:50;6.15;;;4.28;;
69783;SDS011;57054;51.978;4.498;2023-04-20T14:48:16;5.07;;;4.25;;